WetterOnline ( http://www.wetteronline.de )

Wetter aktuell Geisenheim

Aktuelles Wetter: Geisenheim (110m)

6-stündlich | Neueste Meldungen
Ortszeit Temperatur Wetter
Di, 22.01. 7:00 -8.1° C bedeckt
Di, 22.01. 1:00 -6.3° C fast wolkenlos
Mo, 21.01. 19:00 -3.1° C fast wolkenlos
Mo, 21.01. 13:00 -0.9° C wolkenlos
Mo, 21.01. 7:00 -6.2° C wolkenlos
Mo, 21.01. 1:00 -5.1° C wolkenlos
So, 20.01. 19:00 -2.6° C fast wolkenlos
So, 20.01. 13:00 -0.7° C wolkenlos
Ortszeit Temperatur Wetter
Di, 22.01. 8:30 -6.9° C bedeckt
Di, 22.01. 8:20 -6.9° C bedeckt
Di, 22.01. 8:10 -7.4° C bedeckt
Di, 22.01. 8:00 -7.7° C bedeckt
Di, 22.01. 7:50 -7.7° C bedeckt
Di, 22.01. 7:40 -7.8° C bedeckt
Di, 22.01. 7:30 -7.7° C bewölkt
Di, 22.01. 7:00 -8.1° C bedeckt
Di, 22.01. 6:30 -7.6° C bewölkt
Di, 22.01. 6:00 -7.8° C bedeckt
Di, 22.01. 5:30 -8.0° C wolkig
Ortszeit Relative Feuchte Sichtweite
Di, 22.01. 7:00 92% 10 km
Di, 22.01. 1:00 92% 12 km
Mo, 21.01. 19:00 80% 21 km
Mo, 21.01. 13:00 69% 25 km
Mo, 21.01. 7:00 86% 22 km
Mo, 21.01. 1:00 86% 23 km
So, 20.01. 19:00 78% 28 km
So, 20.01. 13:00 66% 29 km
Ortszeit Relative Feuchte Sichtweite
Di, 22.01. 8:30 95% 6 km
Di, 22.01. 8:20 95% -
Di, 22.01. 8:10 91% -
Di, 22.01. 8:00 92% 10 km
Di, 22.01. 7:50 92% -
Di, 22.01. 7:40 90% -
Di, 22.01. 7:30 91% 8 km
Di, 22.01. 7:00 92% 10 km
Di, 22.01. 6:30 95% 5.0 km
Di, 22.01. 6:00 93% 9 km
Di, 22.01. 5:30 92% 10 km
Ortszeit Niederschlagsmenge Niederschlagsart
Di, 22.01. 7:00 0.0 l/m2 in 12 Std. -
Di, 22.01. 1:00 0.0 l/m2 in 6 Std. -
Mo, 21.01. 19:00 0.0 l/m2 in 12 Std. -
Mo, 21.01. 13:00 0.0 l/m2 in 6 Std. -
Mo, 21.01. 7:00 0.0 l/m2 in 12 Std. -
Mo, 21.01. 1:00 0.0 l/m2 in 6 Std. -
So, 20.01. 19:00 0.0 l/m2 in 12 Std. -
So, 20.01. 13:00 0.0 l/m2 in 6 Std. -
Ortszeit Niederschlagsmenge Niederschlagsart
Di, 22.01. 8:30 0.0 l/m2 in 1 Std. -
Di, 22.01. 8:20 keine Meldung -
Di, 22.01. 8:10 keine Meldung -
Di, 22.01. 8:00 0.0 l/m2 in 1 Std. -
Di, 22.01. 7:50 keine Meldung -
Di, 22.01. 7:40 keine Meldung -
Di, 22.01. 7:30 0.0 l/m2 in 1 Std. -
Di, 22.01. 7:00 0.0 l/m2 in 1 Std. -
Di, 22.01. 6:30 0.0 l/m2 in 1 Std. -
Di, 22.01. 6:00 0.0 l/m2 in 1 Std. -
Di, 22.01. 5:30 0.0 l/m2 in 1 Std. -
Ortszeit Stärke Spitze Richtung
km/h Bft. km/h Grad Sektor
Di, 22.01. 7:00 0 0 4 - -
Di, 22.01. 1:00 4 1 14 260° W
Mo, 21.01. 19:00 7 2 11 350° N
Mo, 21.01. 13:00 7 2 14 250° W
Mo, 21.01. 7:00 7 2 11 300° NW
Mo, 21.01. 1:00 4 1 11 320° NW
So, 20.01. 19:00 11 2 22 350° N
So, 20.01. 13:00 11 2 19 100° O
Ortszeit Stärke Spitze Richtung
km/h Bft. km/h Grad Sektor
Di, 22.01. 8:30 4 1 7 170° S
Di, 22.01. 8:20 4 1 - 170° S
Di, 22.01. 8:10 4 1 - 210° SW
Di, 22.01. 8:00 4 1 7 180° S
Di, 22.01. 7:50 4 1 - 180° S
Di, 22.01. 7:40 4 1 - 180° S
Di, 22.01. 7:30 4 1 4 210° SW
Di, 22.01. 7:00 0 0 4 - -
Di, 22.01. 6:30 0 0 4 - -
Di, 22.01. 6:00 2 1 6 250° W
Di, 22.01. 5:30 4 1 4 270° W
Ortszeit Untergrenze Bedeckung Gattung
total tief tief mittel hoch
Di, 22.01. 7:00 - 8/8 - - - -
Di, 22.01. 1:00 2700 m 1/8 1/8 - - -
Mo, 21.01. 19:00 9000 m 2/8 0/8 - - -
Mo, 21.01. 13:00 - 0/8 0/8 - - -
Mo, 21.01. 7:00 - 0/8 0/8 - - -
Mo, 21.01. 1:00 - 0/8 0/8 - - -
So, 20.01. 19:00 2700 m 1/8 1/8 - - -
So, 20.01. 13:00 - 0/8 0/8 - - -
Ortszeit Bedeckungsgrad in Achtel und Wolkenuntergrenze
Di, 22.01. 8:30 8(120m)
Di, 22.01. 8:20 8(120m)
Di, 22.01. 8:10 8(150m)
Di, 22.01. 8:00 8(210m)
Di, 22.01. 7:50 8(210m)
Di, 22.01. 7:40 8(240m)
Di, 22.01. 7:30 7(270m) 7(600m)
Di, 22.01. 7:00 9 9 9
Di, 22.01. 6:30 3(60m) 5(1800m) 9(8400m)
Di, 22.01. 6:00 9 9 9
Di, 22.01. 5:30 7(7500m) 8(7800m)
Ortszeit Luftdruck NN (hPa) Tendenz (hPa in 3 Std.)
Di, 22.01. 7:00 1016 - 2,0
Di, 22.01. 1:00 1020 - 1,1
Mo, 21.01. 19:00 1022 - 0,3
Mo, 21.01. 13:00 1024 - 0,7
Mo, 21.01. 7:00 1024 + 0,4
Mo, 21.01. 1:00 1023 + 1,3
So, 20.01. 19:00 1020 + 1,5
So, 20.01. 13:00 1018 + 0,6
Ortszeit Luftdruck NN (hPa) Tendenz (hPa in 3 Std.)
Di, 22.01. 8:30 1016 - 1,3
Di, 22.01. 8:20 1016 keine Meldung
Di, 22.01. 8:10 1016 keine Meldung
Di, 22.01. 8:00 1016 - 1,3
Di, 22.01. 7:50 1016 keine Meldung
Di, 22.01. 7:40 1016 keine Meldung
Di, 22.01. 7:30 1016 - 1,5
Di, 22.01. 7:00 1016 - 2,0
Di, 22.01. 6:30 1016 - 2,3
Di, 22.01. 6:00 1017 - 2,6
Di, 22.01. 5:30 1017 - 2,4
Ortszeit Schneehöhe (cm)
Di, 22.01. 7:00 0
Di, 22.01. 1:00 0
Mo, 21.01. 19:00 0
Mo, 21.01. 13:00 0
Mo, 21.01. 7:00 0
Mo, 21.01. 1:00 0
So, 20.01. 19:00 0
So, 20.01. 13:00 0
Ortszeit Schneehöhe (cm)
Di, 22.01. 8:30 0
Di, 22.01. 8:20 0
Di, 22.01. 8:10 0
Di, 22.01. 8:00 0
Di, 22.01. 7:50 0
Di, 22.01. 7:40 0
Di, 22.01. 7:30 0
Di, 22.01. 7:00 0
Di, 22.01. 6:30 0
Di, 22.01. 6:00 0
Di, 22.01. 5:30 0
Link zu dieser Seite / Seite empfehlen

Das Wetter in ...